Terminal Aerodrome Forecast
Issued by NWS Jackson, KY

Current Version | Previous Version | Text Only | Print | Product List | Glossary On
Versions: 1 2 3 4 5 6 7 8 9 10 11 12 13 14 15
000
FTUS43 KJKL 031739
TAFJKL
TAF
KJKL 031739Z 0318/0418 VRB03KT P6SM VCTS SCT035CB
     FM032200 VRB03KT P6SM FEW040
     FM040900 00000KT 5SM BR FEW250
     FM041030 00000KT 1/2SM FG VV002
     FM041230 VRB03KT P6SM FEW040=

USA.gov is the U.S. government's official web portal to all federal, state and local government web resources and services.